Terminal Aerodrome Forecast
Issued by NWS Upton, NY

Home | Current Version | Previous Version | Text Only | Print | Product List | Glossary On
Versions: 1 2 3 4 5 6 7 8 9 10 11 12 13 14 15 16 17 18 19 20 21 22 23 24 25 26 27 28 29 30 31 32
813
FTUS41 KOKX 240525
TAFEWR
TAF
KEWR 240525Z 2406/2512 23006KT P6SM SKC
     FM240800 VRB05KT P6SM SKC
     FM241300 27005KT P6SM SKC
     FM241700 21008KT P6SM SKC
      TEMPO 2419/2423 16008KT
     FM250000 20006KT P6SM SCT250=

USA.gov is the U.S. government's official web portal to all federal, state and local government web resources and services.